sensor_id;sensor_type;location;lat;lon;timestamp;temperature;humidity
14884;DHT22;7534;50.762;7.000;2022-10-16T00:01:13;15.80;99.90
14884;DHT22;7534;50.762;7.000;2022-10-16T00:03:42;15.70;99.90
14884;DHT22;7534;50.762;7.000;2022-10-16T00:06:09;15.70;99.90
14884;DHT22;7534;50.762;7.000;2022-10-16T00:08:37;15.70;99.90
14884;DHT22;7534;50.762;7.000;2022-10-16T00:11:09;15.70;99.90
14884;DHT22;7534;50.762;7.000;2022-10-16T00:13:38;15.70;99.90
14884;DHT22;7534;50.762;7.000;2022-10-16T00:16:06;15.60;99.90
14884;DHT22;7534;50.762;7.000;2022-10-16T00:18:33;15.60;99.90
14884;DHT22;7534;50.762;7.000;2022-10-16T00:21:08;15.50;99.90
14884;DHT22;7534;50.762;7.000;2022-10-16T00:23:39;15.50;99.90
14884;DHT22;7534;50.762;7.000;2022-10-16T00:26:09;15.50;99.90
14884;DHT22;7534;50.762;7.000;2022-10-16T00:28:37;15.40;99.90
14884;DHT22;7534;50.762;7.000;2022-10-16T00:31:10;15.40;99.90
14884;DHT22;7534;50.762;7.000;2022-10-16T00:33:39;15.30;99.90
14884;DHT22;7534;50.762;7.000;2022-10-16T00:36:06;15.20;99.90
14884;DHT22;7534;50.762;7.000;2022-10-16T00:38:34;15.20;99.90
14884;DHT22;7534;50.762;7.000;2022-10-16T00:41:00;15.20;99.90
14884;DHT22;7534;50.762;7.000;2022-10-16T00:43:53;15.20;99.90
14884;DHT22;7534;50.762;7.000;2022-10-16T00:46:29;15.30;99.90
14884;DHT22;7534;50.762;7.000;2022-10-16T00:49:10;15.10;99.90
14884;DHT22;7534;50.762;7.000;2022-10-16T00:51:47;15.10;99.90
14884;DHT22;7534;50.762;7.000;2022-10-16T00:54:19;15.10;99.90
14884;DHT22;7534;50.762;7.000;2022-10-16T00:56:49;15.10;99.90
14884;DHT22;7534;50.762;7.000;2022-10-16T01:01:51;14.90;99.90
14884;DHT22;7534;50.762;7.000;2022-10-16T01:04:18;14.90;99.90
14884;DHT22;7534;50.762;7.000;2022-10-16T01:07:22;14.90;99.90
14884;DHT22;7534;50.762;7.000;2022-10-16T01:10:09;14.90;99.90
14884;DHT22;7534;50.762;7.000;2022-10-16T01:12:45;14.90;99.90
14884;DHT22;7534;50.762;7.000;2022-10-16T01:15:36;14.70;99.90
14884;DHT22;7534;50.762;7.000;2022-10-16T01:18:16;14.60;99.90
14884;DHT22;7534;50.762;7.000;2022-10-16T01:20:51;14.50;99.90
14884;DHT22;7534;50.762;7.000;2022-10-16T01:29:12;14.30;99.90
14884;DHT22;7534;50.762;7.000;2022-10-16T01:31:46;14.30;99.90
14884;DHT22;7534;50.762;7.000;2022-10-16T01:34:19;14.30;99.90
14884;DHT22;7534;50.762;7.000;2022-10-16T01:36:53;14.30;99.90
14884;DHT22;7534;50.762;7.000;2022-10-16T01:39:29;14.30;99.90
14884;DHT22;7534;50.762;7.000;2022-10-16T01:42:03;14.20;99.90
14884;DHT22;7534;50.762;7.000;2022-10-16T01:44:38;14.20;99.90
14884;DHT22;7534;50.762;7.000;2022-10-16T01:47:08;14.20;99.90
14884;DHT22;7534;50.762;7.000;2022-10-16T01:49:36;14.10;99.90
14884;DHT22;7534;50.762;7.000;2022-10-16T01:52:10;14.20;99.90
14884;DHT22;7534;50.762;7.000;2022-10-16T01:54:43;14.20;99.90
14884;DHT22;7534;50.762;7.000;2022-10-16T01:57:13;14.30;99.90
14884;DHT22;7534;50.762;7.000;2022-10-16T01:59:45;14.30;99.90
14884;DHT22;7534;50.762;7.000;2022-10-16T02:02:17;14.20;99.90
14884;DHT22;7534;50.762;7.000;2022-10-16T02:05:04;14.40;99.90
14884;DHT22;7534;50.762;7.000;2022-10-16T02:07:36;14.50;99.90
14884;DHT22;7534;50.762;7.000;2022-10-16T02:10:03;14.60;99.90
14884;DHT22;7534;50.762;7.000;2022-10-16T02:12:34;14.70;99.90
14884;DHT22;7534;50.762;7.000;2022-10-16T02:15:05;14.80;99.90
14884;DHT22;7534;50.762;7.000;2022-10-16T02:17:32;14.80;99.90
14884;DHT22;7534;50.762;7.000;2022-10-16T02:19:59;14.80;99.90
14884;DHT22;7534;50.762;7.000;2022-10-16T02:22:45;15.00;99.90
14884;DHT22;7534;50.762;7.000;2022-10-16T02:25:32;15.00;99.90
14884;DHT22;7534;50.762;7.000;2022-10-16T02:28:14;15.20;99.90
14884;DHT22;7534;50.762;7.000;2022-10-16T02:30:53;15.30;99.90
14884;DHT22;7534;50.762;7.000;2022-10-16T02:33:25;15.20;99.90
14884;DHT22;7534;50.762;7.000;2022-10-16T02:35:54;15.30;99.90
14884;DHT22;7534;50.762;7.000;2022-10-16T02:38:23;15.40;99.90
14884;DHT22;7534;50.762;7.000;2022-10-16T02:40:51;15.40;99.90
14884;DHT22;7534;50.762;7.000;2022-10-16T02:43:17;15.40;99.90
14884;DHT22;7534;50.762;7.000;2022-10-16T02:45:43;15.40;99.90
14884;DHT22;7534;50.762;7.000;2022-10-16T02:48:09;15.50;99.90
14884;DHT22;7534;50.762;7.000;2022-10-16T02:50:35;15.60;99.90
14884;DHT22;7534;50.762;7.000;2022-10-16T02:53:01;15.50;99.90
14884;DHT22;7534;50.762;7.000;2022-10-16T02:55:27;15.50;99.90
14884;DHT22;7534;50.762;7.000;2022-10-16T02:57:53;15.70;99.90
14884;DHT22;7534;50.762;7.000;2022-10-16T03:00:19;15.80;99.90
14884;DHT22;7534;50.762;7.000;2022-10-16T03:02:45;15.60;99.90
14884;DHT22;7534;50.762;7.000;2022-10-16T03:05:12;15.60;99.90
14884;DHT22;7534;50.762;7.000;2022-10-16T03:07:38;15.60;99.90
14884;DHT22;7534;50.762;7.000;2022-10-16T03:10:05;15.60;99.90
14884;DHT22;7534;50.762;7.000;2022-10-16T03:12:31;15.70;99.90
14884;DHT22;7534;50.762;7.000;2022-10-16T03:14:57;15.70;99.90
14884;DHT22;7534;50.762;7.000;2022-10-16T03:17:24;15.70;99.90
14884;DHT22;7534;50.762;7.000;2022-10-16T03:19:50;15.70;99.90
14884;DHT22;7534;50.762;7.000;2022-10-16T03:22:16;15.80;99.90
14884;DHT22;7534;50.762;7.000;2022-10-16T03:24:41;15.80;99.90
14884;DHT22;7534;50.762;7.000;2022-10-16T03:27:07;15.70;99.90
14884;DHT22;7534;50.762;7.000;2022-10-16T03:29:33;15.70;99.90
14884;DHT22;7534;50.762;7.000;2022-10-16T03:32:00;15.60;99.90
14884;DHT22;7534;50.762;7.000;2022-10-16T03:34:26;15.60;99.90
14884;DHT22;7534;50.762;7.000;2022-10-16T03:36:54;15.60;99.90
14884;DHT22;7534;50.762;7.000;2022-10-16T03:39:19;15.70;99.90
14884;DHT22;7534;50.762;7.000;2022-10-16T03:41:45;15.70;99.90
14884;DHT22;7534;50.762;7.000;2022-10-16T03:44:14;15.80;99.90
14884;DHT22;7534;50.762;7.000;2022-10-16T03:46:40;15.80;99.90
14884;DHT22;7534;50.762;7.000;2022-10-16T03:49:06;15.70;99.90
14884;DHT22;7534;50.762;7.000;2022-10-16T03:51:31;15.80;99.90
14884;DHT22;7534;50.762;7.000;2022-10-16T03:53:57;15.60;99.90
14884;DHT22;7534;50.762;7.000;2022-10-16T03:56:23;15.60;99.90
14884;DHT22;7534;50.762;7.000;2022-10-16T03:58:49;15.80;99.90
14884;DHT22;7534;50.762;7.000;2022-10-16T04:01:14;15.90;99.90
14884;DHT22;7534;50.762;7.000;2022-10-16T04:03:40;15.90;99.90
14884;DHT22;7534;50.762;7.000;2022-10-16T04:06:06;15.80;99.90
14884;DHT22;7534;50.762;7.000;2022-10-16T04:08:31;15.90;99.90
14884;DHT22;7534;50.762;7.000;2022-10-16T04:11:00;15.80;99.90
14884;DHT22;7534;50.762;7.000;2022-10-16T04:13:26;15.70;99.90
14884;DHT22;7534;50.762;7.000;2022-10-16T04:15:52;15.80;99.90
14884;DHT22;7534;50.762;7.000;2022-10-16T04:18:18;15.90;99.90
14884;DHT22;7534;50.762;7.000;2022-10-16T04:20:43;15.90;99.90
14884;DHT22;7534;50.762;7.000;2022-10-16T04:23:09;15.80;99.90
14884;DHT22;7534;50.762;7.000;2022-10-16T04:25:35;15.90;99.90
14884;DHT22;7534;50.762;7.000;2022-10-16T04:28:01;15.80;99.90
14884;DHT22;7534;50.762;7.000;2022-10-16T04:30:26;15.90;99.90
14884;DHT22;7534;50.762;7.000;2022-10-16T04:32:52;15.90;99.90
14884;DHT22;7534;50.762;7.000;2022-10-16T04:35:19;15.90;99.90
14884;DHT22;7534;50.762;7.000;2022-10-16T04:37:46;15.90;99.90
14884;DHT22;7534;50.762;7.000;2022-10-16T04:40:12;15.90;99.90
14884;DHT22;7534;50.762;7.000;2022-10-16T04:42:39;15.80;99.90
14884;DHT22;7534;50.762;7.000;2022-10-16T04:45:05;15.70;99.90
14884;DHT22;7534;50.762;7.000;2022-10-16T04:47:31;15.70;99.90
14884;DHT22;7534;50.762;7.000;2022-10-16T04:49:57;15.70;99.90
14884;DHT22;7534;50.762;7.000;2022-10-16T04:52:25;15.70;99.90
14884;DHT22;7534;50.762;7.000;2022-10-16T04:54:52;15.80;99.90
14884;DHT22;7534;50.762;7.000;2022-10-16T04:57:19;15.70;99.90
14884;DHT22;7534;50.762;7.000;2022-10-16T04:59:46;15.70;99.90
14884;DHT22;7534;50.762;7.000;2022-10-16T05:02:11;15.70;99.90
14884;DHT22;7534;50.762;7.000;2022-10-16T05:04:37;15.70;99.90
14884;DHT22;7534;50.762;7.000;2022-10-16T05:07:03;15.70;99.90
14884;DHT22;7534;50.762;7.000;2022-10-16T05:09:28;15.70;99.90
14884;DHT22;7534;50.762;7.000;2022-10-16T05:11:54;15.70;99.90
14884;DHT22;7534;50.762;7.000;2022-10-16T05:14:20;15.70;99.90
14884;DHT22;7534;50.762;7.000;2022-10-16T05:16:45;15.70;99.90
14884;DHT22;7534;50.762;7.000;2022-10-16T05:19:13;15.60;99.90
14884;DHT22;7534;50.762;7.000;2022-10-16T05:21:40;15.60;99.90
14884;DHT22;7534;50.762;7.000;2022-10-16T05:24:06;15.50;99.90
14884;DHT22;7534;50.762;7.000;2022-10-16T05:26:32;15.40;99.90
14884;DHT22;7534;50.762;7.000;2022-10-16T05:28:58;15.40;99.90
14884;DHT22;7534;50.762;7.000;2022-10-16T05:31:23;15.40;99.90
14884;DHT22;7534;50.762;7.000;2022-10-16T05:33:49;15.50;99.90
14884;DHT22;7534;50.762;7.000;2022-10-16T05:36:16;15.50;99.90
14884;DHT22;7534;50.762;7.000;2022-10-16T05:38:44;15.60;99.90
14884;DHT22;7534;50.762;7.000;2022-10-16T05:41:09;15.50;99.90
14884;DHT22;7534;50.762;7.000;2022-10-16T05:43:35;15.50;99.90
14884;DHT22;7534;50.762;7.000;2022-10-16T05:46:03;15.60;99.90
14884;DHT22;7534;50.762;7.000;2022-10-16T05:48:31;15.60;99.90
14884;DHT22;7534;50.762;7.000;2022-10-16T05:51:06;15.60;99.90
14884;DHT22;7534;50.762;7.000;2022-10-16T05:53:34;15.60;99.90
14884;DHT22;7534;50.762;7.000;2022-10-16T05:56:05;15.50;99.90
14884;DHT22;7534;50.762;7.000;2022-10-16T05:58:34;15.50;99.90
14884;DHT22;7534;50.762;7.000;2022-10-16T06:01:05;15.50;99.90
14884;DHT22;7534;50.762;7.000;2022-10-16T06:03:34;15.50;99.90
14884;DHT22;7534;50.762;7.000;2022-10-16T06:06:14;15.40;99.90
14884;DHT22;7534;50.762;7.000;2022-10-16T06:08:46;15.40;99.90
14884;DHT22;7534;50.762;7.000;2022-10-16T06:11:17;15.60;99.90
14884;DHT22;7534;50.762;7.000;2022-10-16T06:13:44;15.40;99.90
14884;DHT22;7534;50.762;7.000;2022-10-16T06:16:14;15.40;99.90
14884;DHT22;7534;50.762;7.000;2022-10-16T06:18:39;15.30;99.90
14884;DHT22;7534;50.762;7.000;2022-10-16T06:21:16;15.30;99.90
14884;DHT22;7534;50.762;7.000;2022-10-16T06:23:43;15.30;99.90
14884;DHT22;7534;50.762;7.000;2022-10-16T06:26:13;15.20;99.90
14884;DHT22;7534;50.762;7.000;2022-10-16T06:28:41;15.00;99.90
14884;DHT22;7534;50.762;7.000;2022-10-16T06:31:09;14.90;99.90
14884;DHT22;7534;50.762;7.000;2022-10-16T06:33:38;14.80;99.90
14884;DHT22;7534;50.762;7.000;2022-10-16T06:36:13;14.80;99.90
14884;DHT22;7534;50.762;7.000;2022-10-16T06:38:41;14.80;99.90
14884;DHT22;7534;50.762;7.000;2022-10-16T06:41:11;14.90;99.90
14884;DHT22;7534;50.762;7.000;2022-10-16T06:43:41;15.00;99.90
14884;DHT22;7534;50.762;7.000;2022-10-16T06:46:10;15.10;99.90
14884;DHT22;7534;50.762;7.000;2022-10-16T06:48:37;15.00;99.90
14884;DHT22;7534;50.762;7.000;2022-10-16T06:51:06;15.20;99.90
14884;DHT22;7534;50.762;7.000;2022-10-16T06:53:39;15.40;99.90
14884;DHT22;7534;50.762;7.000;2022-10-16T06:56:21;15.70;99.90
14884;DHT22;7534;50.762;7.000;2022-10-16T06:58:49;15.90;99.90
14884;DHT22;7534;50.762;7.000;2022-10-16T07:01:17;15.90;99.90
14884;DHT22;7534;50.762;7.000;2022-10-16T07:03:45;16.10;99.90
14884;DHT22;7534;50.762;7.000;2022-10-16T07:06:14;16.10;99.90
14884;DHT22;7534;50.762;7.000;2022-10-16T07:08:43;16.20;99.90
14884;DHT22;7534;50.762;7.000;2022-10-16T07:11:20;16.30;99.90
14884;DHT22;7534;50.762;7.000;2022-10-16T07:13:48;16.30;99.90
14884;DHT22;7534;50.762;7.000;2022-10-16T07:16:16;16.60;99.90
14884;DHT22;7534;50.762;7.000;2022-10-16T07:18:44;16.70;99.90
14884;DHT22;7534;50.762;7.000;2022-10-16T07:21:15;16.90;99.90
14884;DHT22;7534;50.762;7.000;2022-10-16T07:23:44;16.90;99.90
14884;DHT22;7534;50.762;7.000;2022-10-16T07:26:11;16.90;99.90
14884;DHT22;7534;50.762;7.000;2022-10-16T07:28:38;16.90;99.90
14884;DHT22;7534;50.762;7.000;2022-10-16T07:31:10;16.90;99.90
14884;DHT22;7534;50.762;7.000;2022-10-16T07:33:40;16.90;99.90
14884;DHT22;7534;50.762;7.000;2022-10-16T07:36:08;16.80;99.90
14884;DHT22;7534;50.762;7.000;2022-10-16T07:38:34;16.80;99.90
14884;DHT22;7534;50.762;7.000;2022-10-16T07:41:08;16.80;99.90
14884;DHT22;7534;50.762;7.000;2022-10-16T07:43:37;16.90;99.90
14884;DHT22;7534;50.762;7.000;2022-10-16T07:46:03;17.00;99.90
14884;DHT22;7534;50.762;7.000;2022-10-16T07:48:31;17.10;99.90
14884;DHT22;7534;50.762;7.000;2022-10-16T07:51:00;17.10;99.90
14884;DHT22;7534;50.762;7.000;2022-10-16T07:53:27;17.30;99.90
14884;DHT22;7534;50.762;7.000;2022-10-16T07:55:57;17.30;99.90
14884;DHT22;7534;50.762;7.000;2022-10-16T07:58:28;17.40;99.90
14884;DHT22;7534;50.762;7.000;2022-10-16T08:00:55;17.50;99.90
14884;DHT22;7534;50.762;7.000;2022-10-16T08:03:21;17.40;99.90
14884;DHT22;7534;50.762;7.000;2022-10-16T08:05:47;17.40;99.90
14884;DHT22;7534;50.762;7.000;2022-10-16T08:08:14;17.30;99.90
14884;DHT22;7534;50.762;7.000;2022-10-16T08:10:40;17.50;99.90
14884;DHT22;7534;50.762;7.000;2022-10-16T08:13:06;17.10;99.90
14884;DHT22;7534;50.762;7.000;2022-10-16T08:15:32;16.90;99.90
14884;DHT22;7534;50.762;7.000;2022-10-16T08:18:00;16.80;99.90
14884;DHT22;7534;50.762;7.000;2022-10-16T08:20:28;16.80;99.90
14884;DHT22;7534;50.762;7.000;2022-10-16T08:22:55;17.20;99.90
14884;DHT22;7534;50.762;7.000;2022-10-16T08:25:22;19.00;99.90
14884;DHT22;7534;50.762;7.000;2022-10-16T08:27:49;21.50;99.90
14884;DHT22;7534;50.762;7.000;2022-10-16T08:30:16;22.40;96.80
14884;DHT22;7534;50.762;7.000;2022-10-16T08:32:45;22.60;95.30
14884;DHT22;7534;50.762;7.000;2022-10-16T08:35:11;23.60;94.00
14884;DHT22;7534;50.762;7.000;2022-10-16T08:37:38;25.20;91.60
14884;DHT22;7534;50.762;7.000;2022-10-16T08:40:06;26.20;88.70
14884;DHT22;7534;50.762;7.000;2022-10-16T08:48:45;28.30;87.00
14884;DHT22;7534;50.762;7.000;2022-10-16T08:51:23;29.70;93.80
14884;DHT22;7534;50.762;7.000;2022-10-16T08:53:56;29.50;76.30
14884;DHT22;7534;50.762;7.000;2022-10-16T08:56:25;28.70;74.20
14884;DHT22;7534;50.762;7.000;2022-10-16T08:58:52;27.60;74.80
14884;DHT22;7534;50.762;7.000;2022-10-16T09:01:20;26.30;79.70
14884;DHT22;7534;50.762;7.000;2022-10-16T09:06:47;24.50;87.00
14884;DHT22;7534;50.762;7.000;2022-10-16T09:09:44;23.70;89.30
14884;DHT22;7534;50.762;7.000;2022-10-16T09:12:52;23.30;90.70
14884;DHT22;7534;50.762;7.000;2022-10-16T09:15:47;23.10;91.00
14884;DHT22;7534;50.762;7.000;2022-10-16T09:18:29;24.10;91.20
14884;DHT22;7534;50.762;7.000;2022-10-16T09:21:28;25.70;86.40
14884;DHT22;7534;50.762;7.000;2022-10-16T09:24:07;27.70;78.70
14884;DHT22;7534;50.762;7.000;2022-10-16T09:26:37;28.30;74.40
14884;DHT22;7534;50.762;7.000;2022-10-16T09:29:03;28.10;73.10
14884;DHT22;7534;50.762;7.000;2022-10-16T09:31:28;27.70;73.90
14884;DHT22;7534;50.762;7.000;2022-10-16T09:34:02;28.40;72.30
14884;DHT22;7534;50.762;7.000;2022-10-16T09:36:40;28.30;70.90
14884;DHT22;7534;50.762;7.000;2022-10-16T09:39:10;27.70;70.20
14884;DHT22;7534;50.762;7.000;2022-10-16T09:41:42;27.10;72.80
14884;DHT22;7534;50.762;7.000;2022-10-16T09:44:29;26.80;73.30
14884;DHT22;7534;50.762;7.000;2022-10-16T09:47:15;26.90;74.00
14884;DHT22;7534;50.762;7.000;2022-10-16T09:49:58;27.00;72.80
14884;DHT22;7534;50.762;7.000;2022-10-16T09:52:44;26.50;75.70
14884;DHT22;7534;50.762;7.000;2022-10-16T09:55:15;26.20;76.10
14884;DHT22;7534;50.762;7.000;2022-10-16T09:57:52;25.60;75.60
14884;DHT22;7534;50.762;7.000;2022-10-16T10:00:21;24.90;76.50
14884;DHT22;7534;50.762;7.000;2022-10-16T10:02:49;24.40;79.20
14884;DHT22;7534;50.762;7.000;2022-10-16T10:05:24;24.30;81.30
14884;DHT22;7534;50.762;7.000;2022-10-16T10:08:00;24.10;82.70
14884;DHT22;7534;50.762;7.000;2022-10-16T10:10:41;23.80;84.10
14884;DHT22;7534;50.762;7.000;2022-10-16T10:13:22;23.40;83.70
14884;DHT22;7534;50.762;7.000;2022-10-16T10:15:50;23.20;84.00
14884;DHT22;7534;50.762;7.000;2022-10-16T10:18:21;23.00;83.30
14884;DHT22;7534;50.762;7.000;2022-10-16T10:21:03;22.60;85.90
14884;DHT22;7534;50.762;7.000;2022-10-16T10:23:31;22.40;88.50
14884;DHT22;7534;50.762;7.000;2022-10-16T10:28:59;22.30;86.20
14884;DHT22;7534;50.762;7.000;2022-10-16T10:31:34;22.40;86.90
14884;DHT22;7534;50.762;7.000;2022-10-16T10:40:31;23.70;84.00
14884;DHT22;7534;50.762;7.000;2022-10-16T10:46:35;24.60;80.60
14884;DHT22;7534;50.762;7.000;2022-10-16T10:49:31;24.60;78.20
14884;DHT22;7534;50.762;7.000;2022-10-16T10:52:34;24.60;77.50
14884;DHT22;7534;50.762;7.000;2022-10-16T10:55:37;24.20;78.80
14884;DHT22;7534;50.762;7.000;2022-10-16T11:01:19;23.50;79.20
14884;DHT22;7534;50.762;7.000;2022-10-16T11:07:34;23.30;84.90
14884;DHT22;7534;50.762;7.000;2022-10-16T11:10:15;23.40;83.90
14884;DHT22;7534;50.762;7.000;2022-10-16T11:12:52;23.40;81.70
14884;DHT22;7534;50.762;7.000;2022-10-16T11:15:35;23.50;81.60
14884;DHT22;7534;50.762;7.000;2022-10-16T11:18:08;23.60;80.70
14884;DHT22;7534;50.762;7.000;2022-10-16T11:20:49;23.90;79.00
14884;DHT22;7534;50.762;7.000;2022-10-16T11:23:26;24.10;80.20
14884;DHT22;7534;50.762;7.000;2022-10-16T11:26:00;24.10;77.70
14884;DHT22;7534;50.762;7.000;2022-10-16T11:28:35;24.30;78.00
14884;DHT22;7534;50.762;7.000;2022-10-16T11:31:19;24.20;78.00
14884;DHT22;7534;50.762;7.000;2022-10-16T11:33:55;24.20;78.80
14884;DHT22;7534;50.762;7.000;2022-10-16T11:36:33;24.20;76.90
14884;DHT22;7534;50.762;7.000;2022-10-16T11:39:28;24.50;77.00
14884;DHT22;7534;50.762;7.000;2022-10-16T11:42:16;24.90;77.70
14884;DHT22;7534;50.762;7.000;2022-10-16T11:44:59;25.10;76.60
14884;DHT22;7534;50.762;7.000;2022-10-16T11:47:54;24.80;75.90
14884;DHT22;7534;50.762;7.000;2022-10-16T11:50:37;24.80;77.00
14884;DHT22;7534;50.762;7.000;2022-10-16T11:53:16;25.00;75.60
14884;DHT22;7534;50.762;7.000;2022-10-16T11:55:49;25.10;74.60
14884;DHT22;7534;50.762;7.000;2022-10-16T12:00:58;25.10;74.70
14884;DHT22;7534;50.762;7.000;2022-10-16T12:03:42;25.30;75.30
14884;DHT22;7534;50.762;7.000;2022-10-16T12:06:27;25.20;74.10
14884;DHT22;7534;50.762;7.000;2022-10-16T12:08:59;25.20;76.00
14884;DHT22;7534;50.762;7.000;2022-10-16T12:14:03;25.10;73.70
14884;DHT22;7534;50.762;7.000;2022-10-16T12:16:59;25.00;75.20
14884;DHT22;7534;50.762;7.000;2022-10-16T12:19:30;25.10;74.80
14884;DHT22;7534;50.762;7.000;2022-10-16T12:21:59;25.50;73.30
14884;DHT22;7534;50.762;7.000;2022-10-16T12:24:50;25.80;73.00
14884;DHT22;7534;50.762;7.000;2022-10-16T12:27:29;25.90;73.90
14884;DHT22;7534;50.762;7.000;2022-10-16T12:30:02;26.10;72.00
14884;DHT22;7534;50.762;7.000;2022-10-16T12:32:31;26.00;71.20
14884;DHT22;7534;50.762;7.000;2022-10-16T12:35:00;26.20;72.10
14884;DHT22;7534;50.762;7.000;2022-10-16T12:37:38;26.30;69.80
14884;DHT22;7534;50.762;7.000;2022-10-16T12:40:31;26.30;70.50
14884;DHT22;7534;50.762;7.000;2022-10-16T12:43:12;26.20;70.00
14884;DHT22;7534;50.762;7.000;2022-10-16T12:45:59;25.80;72.30
14884;DHT22;7534;50.762;7.000;2022-10-16T12:48:46;25.20;75.20
14884;DHT22;7534;50.762;7.000;2022-10-16T12:57:09;24.60;80.30
14884;DHT22;7534;50.762;7.000;2022-10-16T13:02:39;24.80;80.10
14884;DHT22;7534;50.762;7.000;2022-10-16T13:11:05;25.40;77.70
14884;DHT22;7534;50.762;7.000;2022-10-16T13:13:57;25.50;76.90
14884;DHT22;7534;50.762;7.000;2022-10-16T13:17:09;25.30;77.50
14884;DHT22;7534;50.762;7.000;2022-10-16T13:23:15;25.40;78.20
14884;DHT22;7534;50.762;7.000;2022-10-16T13:29:12;24.90;80.10
14884;DHT22;7534;50.762;7.000;2022-10-16T13:31:41;25.00;80.00
14884;DHT22;7534;50.762;7.000;2022-10-16T13:34:21;24.90;79.10
14884;DHT22;7534;50.762;7.000;2022-10-16T13:36:50;25.00;80.70
14884;DHT22;7534;50.762;7.000;2022-10-16T13:39:28;24.90;79.30
14884;DHT22;7534;50.762;7.000;2022-10-16T13:42:33;24.60;80.30
14884;DHT22;7534;50.762;7.000;2022-10-16T13:44:59;24.50;81.30
14884;DHT22;7534;50.762;7.000;2022-10-16T13:47:27;24.40;81.30
14884;DHT22;7534;50.762;7.000;2022-10-16T13:50:06;24.20;81.60
14884;DHT22;7534;50.762;7.000;2022-10-16T13:52:37;24.10;83.10
14884;DHT22;7534;50.762;7.000;2022-10-16T13:55:12;23.90;83.40
14884;DHT22;7534;50.762;7.000;2022-10-16T13:57:39;23.80;83.70
14884;DHT22;7534;50.762;7.000;2022-10-16T14:00:37;23.70;84.50
14884;DHT22;7534;50.762;7.000;2022-10-16T14:03:06;23.80;84.80
14884;DHT22;7534;50.762;7.000;2022-10-16T14:05:49;23.80;85.10
14884;DHT22;7534;50.762;7.000;2022-10-16T14:08:22;23.80;85.60
14884;DHT22;7534;50.762;7.000;2022-10-16T14:10:52;23.70;86.20
14884;DHT22;7534;50.762;7.000;2022-10-16T14:13:43;23.60;86.30
14884;DHT22;7534;50.762;7.000;2022-10-16T14:16:18;23.50;86.80
14884;DHT22;7534;50.762;7.000;2022-10-16T14:18:57;23.40;88.10
14884;DHT22;7534;50.762;7.000;2022-10-16T14:21:28;23.40;87.80
14884;DHT22;7534;50.762;7.000;2022-10-16T14:23:55;23.40;87.90
14884;DHT22;7534;50.762;7.000;2022-10-16T14:26:24;23.30;88.80
14884;DHT22;7534;50.762;7.000;2022-10-16T14:29:11;23.10;89.30
14884;DHT22;7534;50.762;7.000;2022-10-16T14:31:40;23.10;89.20
14884;DHT22;7534;50.762;7.000;2022-10-16T14:34:52;22.90;89.60
14884;DHT22;7534;50.762;7.000;2022-10-16T14:37:26;23.00;90.20
14884;DHT22;7534;50.762;7.000;2022-10-16T14:39:54;22.90;90.40
14884;DHT22;7534;50.762;7.000;2022-10-16T14:42:24;23.00;90.60
14884;DHT22;7534;50.762;7.000;2022-10-16T14:44:52;23.00;90.50
14884;DHT22;7534;50.762;7.000;2022-10-16T14:47:22;23.00;90.60
14884;DHT22;7534;50.762;7.000;2022-10-16T14:49:52;23.00;90.70
14884;DHT22;7534;50.762;7.000;2022-10-16T14:52:21;22.90;90.80
14884;DHT22;7534;50.762;7.000;2022-10-16T14:54:51;22.70;91.10
14884;DHT22;7534;50.762;7.000;2022-10-16T14:57:22;22.70;91.40
14884;DHT22;7534;50.762;7.000;2022-10-16T14:59:50;22.60;91.50
14884;DHT22;7534;50.762;7.000;2022-10-16T15:02:39;22.50;91.70
14884;DHT22;7534;50.762;7.000;2022-10-16T15:05:17;22.70;91.70
14884;DHT22;7534;50.762;7.000;2022-10-16T15:07:46;22.70;91.60
14884;DHT22;7534;50.762;7.000;2022-10-16T15:10:16;22.50;91.90
14884;DHT22;7534;50.762;7.000;2022-10-16T15:12:43;22.30;92.10
14884;DHT22;7534;50.762;7.000;2022-10-16T15:15:33;22.30;92.30
14884;DHT22;7534;50.762;7.000;2022-10-16T15:18:02;22.30;92.50
14884;DHT22;7534;50.762;7.000;2022-10-16T15:20:33;22.20;92.90
14884;DHT22;7534;50.762;7.000;2022-10-16T15:23:02;22.20;92.90
14884;DHT22;7534;50.762;7.000;2022-10-16T15:25:31;22.10;93.00
14884;DHT22;7534;50.762;7.000;2022-10-16T15:28:01;21.90;93.40
14884;DHT22;7534;50.762;7.000;2022-10-16T15:30:29;21.70;93.60
14884;DHT22;7534;50.762;7.000;2022-10-16T15:32:55;21.70;93.80
14884;DHT22;7534;50.762;7.000;2022-10-16T15:35:22;21.60;93.90
14884;DHT22;7534;50.762;7.000;2022-10-16T15:37:48;21.50;93.90
14884;DHT22;7534;50.762;7.000;2022-10-16T15:40:16;21.50;94.10
14884;DHT22;7534;50.762;7.000;2022-10-16T15:42:43;21.30;94.40
14884;DHT22;7534;50.762;7.000;2022-10-16T15:45:10;21.30;94.60
14884;DHT22;7534;50.762;7.000;2022-10-16T15:47:37;21.20;94.60
14884;DHT22;7534;50.762;7.000;2022-10-16T15:50:05;21.30;94.80
14884;DHT22;7534;50.762;7.000;2022-10-16T15:52:31;21.20;95.10
14884;DHT22;7534;50.762;7.000;2022-10-16T15:54:58;21.20;95.00
14884;DHT22;7534;50.762;7.000;2022-10-16T15:57:24;21.20;95.20
14884;DHT22;7534;50.762;7.000;2022-10-16T15:59:50;21.20;95.30
14884;DHT22;7534;50.762;7.000;2022-10-16T16:02:16;21.10;95.40
14884;DHT22;7534;50.762;7.000;2022-10-16T16:04:42;21.10;95.50
14884;DHT22;7534;50.762;7.000;2022-10-16T16:07:07;21.10;95.60
14884;DHT22;7534;50.762;7.000;2022-10-16T16:09:34;21.00;95.70
14884;DHT22;7534;50.762;7.000;2022-10-16T16:12:00;20.90;96.00
14884;DHT22;7534;50.762;7.000;2022-10-16T16:14:26;20.80;96.30
14884;DHT22;7534;50.762;7.000;2022-10-16T16:16:54;20.60;96.60
14884;DHT22;7534;50.762;7.000;2022-10-16T16:19:20;20.60;96.80
14884;DHT22;7534;50.762;7.000;2022-10-16T16:21:47;20.60;97.20
14884;DHT22;7534;50.762;7.000;2022-10-16T16:24:13;20.50;97.20
14884;DHT22;7534;50.762;7.000;2022-10-16T16:26:38;20.50;97.30
14884;DHT22;7534;50.762;7.000;2022-10-16T16:29:13;20.40;97.50
14884;DHT22;7534;50.762;7.000;2022-10-16T16:31:41;20.40;97.70
14884;DHT22;7534;50.762;7.000;2022-10-16T16:34:07;20.30;98.00
14884;DHT22;7534;50.762;7.000;2022-10-16T16:36:35;20.40;98.20
14884;DHT22;7534;50.762;7.000;2022-10-16T16:39:02;20.20;98.10
14884;DHT22;7534;50.762;7.000;2022-10-16T16:41:30;20.10;98.40
14884;DHT22;7534;50.762;7.000;2022-10-16T16:44:01;20.10;98.60
14884;DHT22;7534;50.762;7.000;2022-10-16T16:46:30;20.00;98.70
14884;DHT22;7534;50.762;7.000;2022-10-16T16:48:58;20.00;99.20
14884;DHT22;7534;50.762;7.000;2022-10-16T16:51:24;19.90;99.20
14884;DHT22;7534;50.762;7.000;2022-10-16T16:53:51;19.90;99.60
14884;DHT22;7534;50.762;7.000;2022-10-16T16:56:19;19.80;99.40
14884;DHT22;7534;50.762;7.000;2022-10-16T16:58:46;19.80;99.50
14884;DHT22;7534;50.762;7.000;2022-10-16T17:01:14;19.70;99.70
14884;DHT22;7534;50.762;7.000;2022-10-16T17:03:42;19.70;99.90
14884;DHT22;7534;50.762;7.000;2022-10-16T17:06:13;19.70;99.90
14884;DHT22;7534;50.762;7.000;2022-10-16T17:08:40;19.60;99.90
14884;DHT22;7534;50.762;7.000;2022-10-16T17:11:11;19.60;99.90
14884;DHT22;7534;50.762;7.000;2022-10-16T17:13:42;19.50;99.90
14884;DHT22;7534;50.762;7.000;2022-10-16T17:16:08;19.50;99.90
14884;DHT22;7534;50.762;7.000;2022-10-16T17:18:35;19.50;99.90